METAR Formatted Surface Weather Observation
Issued by NWS

Current Version | Previous Version | Text Only | Print | Product List | Glossary On
Versions: 1 2 3 4 5 6 7 8 9 10 11 12
531
SAUS41 KGYX 301756
MTRNKT
METAR KNKT 301754Z 20018G24KT 10SM SCT027 BKN036 27/20 A3020 RMK AO2
SLP224 T02720200 10283 20233 58009



USA.gov is the U.S. government's official web portal to all federal, state and local government web resources and services.